createdAt,value
2019-01-29T00:00:54.169Z,3.27
2019-01-29T00:03:23.479Z,4.23
2019-01-29T00:05:52.805Z,4.20
2019-01-29T00:08:22.139Z,4.63
2019-01-29T00:10:51.493Z,4.57
2019-01-29T00:13:20.803Z,4.43
2019-01-29T00:15:50.173Z,4.67
2019-01-29T00:18:19.522Z,5.93
2019-01-29T00:20:48.945Z,4.53
2019-01-29T00:23:18.251Z,4.80
2019-01-29T00:25:47.596Z,4.40
2019-01-29T00:28:16.898Z,5.03
2019-01-29T00:30:46.252Z,4.93
2019-01-29T00:33:15.602Z,4.27
2019-01-29T00:35:44.972Z,4.83
2019-01-29T00:38:14.391Z,6.07
2019-01-29T00:40:43.593Z,5.23
2019-01-29T00:43:12.891Z,5.80
2019-01-29T00:45:42.267Z,5.77
2019-01-29T00:48:11.584Z,5.20
2019-01-29T00:50:41.000Z,6.20
2019-01-29T00:53:10.298Z,6.30
2019-01-29T00:55:39.599Z,6.13
2019-01-29T00:58:09.055Z,6.70
2019-01-29T01:00:38.413Z,4.30
2019-01-29T01:03:07.735Z,6.60
2019-01-29T01:05:37.064Z,6.80
2019-01-29T01:08:06.313Z,7.30
2019-01-29T01:10:35.590Z,7.20
2019-01-29T01:13:04.887Z,7.63
2019-01-29T01:15:34.189Z,6.20
2019-01-29T01:18:03.493Z,6.90
2019-01-29T01:20:32.917Z,7.97
2019-01-29T01:23:02.225Z,8.70
2019-01-29T01:25:31.567Z,7.97
2019-01-29T01:28:00.919Z,8.90
2019-01-29T01:30:30.229Z,7.77
2019-01-29T01:32:59.725Z,8.00
2019-01-29T01:35:29.001Z,8.37
2019-01-29T01:37:58.349Z,8.90
2019-01-29T01:40:27.817Z,8.77
2019-01-29T01:42:57.135Z,8.97
2019-01-29T01:45:26.539Z,6.83
2019-01-29T01:47:55.891Z,9.10
2019-01-29T01:50:25.223Z,8.33
2019-01-29T01:52:59.290Z,6.37
2019-01-29T01:55:23.839Z,9.33
2019-01-29T01:57:53.207Z,8.73
2019-01-29T02:00:22.646Z,8.53
2019-01-29T02:02:51.980Z,9.00
2019-01-29T02:05:21.357Z,9.17
2019-01-29T02:07:50.649Z,7.33
2019-01-29T02:10:22.327Z,7.67
2019-01-29T02:12:51.664Z,8.70
2019-01-29T02:15:20.989Z,7.93
2019-01-29T02:17:50.277Z,9.07
2019-01-29T02:20:19.609Z,8.57
2019-01-29T02:22:48.915Z,9.43
2019-01-29T02:25:18.192Z,9.27
2019-01-29T02:27:47.531Z,9.97
2019-01-29T02:30:18.854Z,9.00
2019-01-29T02:32:48.165Z,8.83
2019-01-29T02:35:17.490Z,10.23
2019-01-29T02:37:46.806Z,10.33
2019-01-29T02:40:21.417Z,9.80
2019-01-29T02:42:50.729Z,9.63
2019-01-29T02:45:20.095Z,10.50
2019-01-29T02:47:49.416Z,9.73
2019-01-29T02:50:18.742Z,9.70
2019-01-29T02:52:48.033Z,6.57
2019-01-29T02:55:17.379Z,9.23
2019-01-29T02:57:46.778Z,8.87
2019-01-29T03:00:18.373Z,9.17
2019-01-29T03:02:47.722Z,8.73
2019-01-29T03:05:17.027Z,8.10
2019-01-29T03:07:46.495Z,8.93
2019-01-29T03:10:18.019Z,8.70
2019-01-29T03:12:47.332Z,8.60
2019-01-29T03:15:18.831Z,8.77
2019-01-29T03:17:48.116Z,8.50
2019-01-29T03:20:17.442Z,8.47
2019-01-29T03:22:46.713Z,8.80
2019-01-29T03:25:15.982Z,9.97
2019-01-29T03:27:45.373Z,9.77
2019-01-29T03:30:16.053Z,8.23
2019-01-29T03:32:45.389Z,9.03
2019-01-29T03:35:14.632Z,9.20
2019-01-29T03:37:43.891Z,7.97
2019-01-29T03:40:15.254Z,9.00
2019-01-29T03:42:44.545Z,7.27
2019-01-29T03:45:15.529Z,7.83
2019-01-29T03:47:44.789Z,8.10
2019-01-29T03:50:15.475Z,8.63
2019-01-29T03:52:44.739Z,7.33
2019-01-29T03:55:14.039Z,8.00
2019-01-29T03:57:43.301Z,7.37
2019-01-29T04:00:15.319Z,8.20
2019-01-29T04:02:44.621Z,6.17
2019-01-29T04:05:13.876Z,8.03
2019-01-29T04:07:43.122Z,8.13
2019-01-29T04:10:15.569Z,8.83
2019-01-29T04:12:42.892Z,8.10
2019-01-29T04:15:14.165Z,8.17
2019-01-29T04:17:43.440Z,9.10
2019-01-29T04:20:15.364Z,8.37
2019-01-29T04:22:45.940Z,8.70
2019-01-29T04:25:13.893Z,8.47
2019-01-29T04:27:43.334Z,7.77
2019-01-29T04:30:18.062Z,6.93
2019-01-29T04:32:47.336Z,7.10
2019-01-29T04:35:16.666Z,9.03
2019-01-29T04:37:46.017Z,7.73
2019-01-29T04:40:17.096Z,7.10
2019-01-29T04:42:46.451Z,7.23
2019-01-29T04:45:16.115Z,7.73
2019-01-29T04:47:45.474Z,8.23
2019-01-29T04:50:19.567Z,7.50
2019-01-29T04:52:48.860Z,6.97
2019-01-29T04:55:18.279Z,6.53
2019-01-29T04:57:47.585Z,7.00
2019-01-29T05:00:19.014Z,7.47
2019-01-29T05:02:48.394Z,6.47
2019-01-29T05:05:18.622Z,6.43
2019-01-29T05:07:48.052Z,6.20
2019-01-29T05:10:17.492Z,5.77
2019-01-29T05:12:46.766Z,5.57
2019-01-29T05:15:16.332Z,5.63
2019-01-29T05:17:45.655Z,5.67
2019-01-29T05:20:17.524Z,5.07
2019-01-29T05:22:46.829Z,5.30
2019-01-29T05:25:16.288Z,5.80
2019-01-29T05:27:45.655Z,5.67
2019-01-29T05:30:20.765Z,5.53
2019-01-29T05:32:49.000Z,5.67
2019-01-29T05:35:18.359Z,5.60
2019-01-29T05:37:47.723Z,6.23
2019-01-29T05:40:17.994Z,5.67
2019-01-29T05:42:47.248Z,5.90
2019-01-29T05:45:17.687Z,5.83
2019-01-29T05:47:46.942Z,6.70
2019-01-29T05:50:16.207Z,5.97
2019-01-29T05:52:45.482Z,6.43
2019-01-29T05:55:14.852Z,6.07
2019-01-29T05:57:44.080Z,7.23
2019-01-29T06:00:21.178Z,6.60
2019-01-29T06:02:50.562Z,5.90
2019-01-29T06:05:19.883Z,6.63
2019-01-29T06:07:49.272Z,5.90
2019-01-29T06:10:18.581Z,6.57
2019-01-29T06:12:47.883Z,5.63
2019-01-29T06:15:18.228Z,6.40
2019-01-29T06:17:47.503Z,5.57
2019-01-29T06:20:21.547Z,6.00
2019-01-29T06:22:50.777Z,6.23
2019-01-29T06:25:20.040Z,5.30
2019-01-29T06:27:49.414Z,5.80
2019-01-29T06:30:19.802Z,4.53
2019-01-29T06:32:49.127Z,5.80
2019-01-29T06:35:18.778Z,5.23
2019-01-29T06:37:48.067Z,5.43
2019-01-29T06:40:19.304Z,5.23
2019-01-29T06:42:48.633Z,5.10
2019-01-29T06:45:18.554Z,5.63
2019-01-29T06:47:47.938Z,5.43
2019-01-29T06:50:19.171Z,5.50
2019-01-29T06:52:48.586Z,5.37
2019-01-29T06:55:19.189Z,5.67
2019-01-29T06:57:55.090Z,4.60
2019-01-29T07:00:20.316Z,4.40
2019-01-29T07:02:49.850Z,5.33
2019-01-29T07:05:19.226Z,4.90
2019-01-29T07:07:48.900Z,4.87
2019-01-29T07:10:18.832Z,5.50
2019-01-29T07:12:48.310Z,5.37
2019-01-29T07:15:41.163Z,4.90
2019-01-29T07:18:29.820Z,5.13
2019-01-29T07:20:59.095Z,5.50
2019-01-29T07:23:28.422Z,5.87
2019-01-29T07:25:57.742Z,5.40
2019-01-29T07:28:27.032Z,5.87
2019-01-29T07:30:56.426Z,6.20
2019-01-29T07:33:25.830Z,6.97
2019-01-29T07:35:55.129Z,7.53
2019-01-29T07:38:24.743Z,7.53
2019-01-29T07:40:54.308Z,8.17
2019-01-29T07:43:23.649Z,7.87
2019-01-29T07:45:52.935Z,8.70
2019-01-29T07:48:22.266Z,8.83
2019-01-29T07:50:51.563Z,7.83
2019-01-29T07:53:21.013Z,9.13
2019-01-29T07:55:50.202Z,9.30
2019-01-29T07:58:19.547Z,9.17
2019-01-29T08:00:48.855Z,8.87
2019-01-29T08:03:18.556Z,8.80
2019-01-29T08:05:47.850Z,9.13
2019-01-29T08:08:17.119Z,9.10
2019-01-29T08:10:46.452Z,8.90
2019-01-29T08:13:15.879Z,8.63
2019-01-29T08:15:45.365Z,8.37
2019-01-29T08:18:14.798Z,8.60
2019-01-29T08:20:44.192Z,7.77
2019-01-29T08:23:13.690Z,7.97
2019-01-29T08:25:47.844Z,7.73
2019-01-29T08:28:12.395Z,7.73
2019-01-29T08:30:41.723Z,6.83
2019-01-29T08:33:10.995Z,6.70
2019-01-29T08:35:41.658Z,6.27
2019-01-29T08:38:09.717Z,6.47
2019-01-29T08:40:39.075Z,6.47
2019-01-29T08:43:08.286Z,6.20
2019-01-29T08:45:37.572Z,6.30
2019-01-29T08:48:06.897Z,6.77
2019-01-29T08:50:36.240Z,5.60
2019-01-29T08:53:05.638Z,5.30
2019-01-29T08:55:34.902Z,6.13
2019-01-29T08:58:04.375Z,5.63
2019-01-29T09:00:33.735Z,5.30
2019-01-29T09:03:03.149Z,5.87
2019-01-29T09:05:32.622Z,5.73
2019-01-29T09:08:02.065Z,6.10
2019-01-29T09:10:31.327Z,5.60
2019-01-29T09:13:00.620Z,5.50
2019-01-29T09:15:30.046Z,4.67
2019-01-29T09:17:59.352Z,4.70
2019-01-29T09:20:28.668Z,5.00
2019-01-29T09:22:58.268Z,4.83
2019-01-29T09:25:27.641Z,5.23
2019-01-29T09:27:57.091Z,4.80
2019-01-29T09:30:26.633Z,5.37
2019-01-29T09:32:56.054Z,5.20
2019-01-29T09:35:25.428Z,4.97
2019-01-29T09:37:55.049Z,4.77
2019-01-29T09:40:24.465Z,5.53
2019-01-29T09:42:53.817Z,5.93
2019-01-29T09:45:23.242Z,4.77
2019-01-29T09:47:52.609Z,4.90
2019-01-29T09:50:22.338Z,5.53
2019-01-29T09:52:51.733Z,4.57
2019-01-29T09:55:29.010Z,5.17
2019-01-29T09:57:50.659Z,5.33
2019-01-29T10:00:33.672Z,5.50
2019-01-29T10:03:03.073Z,4.73
2019-01-29T10:05:32.406Z,5.43
2019-01-29T10:08:01.847Z,4.87
2019-01-29T10:10:31.078Z,4.50
2019-01-29T10:13:00.403Z,4.83
2019-01-29T10:15:32.649Z,6.30
2019-01-29T10:18:02.967Z,4.70
2019-01-29T10:20:32.390Z,5.37
2019-01-29T10:23:05.753Z,5.17
2019-01-29T10:25:37.978Z,6.13
2019-01-29T10:28:02.529Z,6.60
2019-01-29T10:30:31.869Z,6.63
2019-01-29T10:33:01.187Z,6.27
2019-01-29T10:35:30.526Z,6.37
2019-01-29T10:37:59.933Z,5.87
2019-01-29T10:40:29.342Z,6.07
2019-01-29T10:42:58.744Z,5.63
2019-01-29T10:45:28.996Z,6.03
2019-01-29T10:47:58.405Z,6.20
2019-01-29T10:50:28.432Z,6.20
2019-01-29T10:52:57.953Z,6.03
2019-01-29T10:55:27.333Z,5.67
2019-01-29T10:57:56.650Z,6.03
2019-01-29T11:00:32.358Z,6.10
2019-01-29T11:03:01.664Z,5.20
2019-01-29T11:05:31.099Z,5.47
2019-01-29T11:08:00.292Z,5.83
2019-01-29T11:10:29.599Z,5.63
2019-01-29T11:12:58.955Z,6.23
2019-01-29T11:15:32.159Z,6.27
2019-01-29T11:18:00.686Z,5.67
2019-01-29T11:20:30.166Z,6.93
2019-01-29T11:22:59.483Z,6.93
2019-01-29T11:25:29.427Z,6.70
2019-01-29T11:27:58.810Z,6.53
2019-01-29T11:30:29.075Z,6.40
2019-01-29T11:32:58.394Z,6.63
2019-01-29T11:35:27.739Z,6.30
2019-01-29T11:37:57.083Z,6.83
2019-01-29T11:40:28.064Z,6.63
2019-01-29T11:42:57.322Z,6.07
2019-01-29T11:45:38.924Z,6.37
2019-01-29T11:48:08.222Z,7.90
2019-01-29T11:50:37.562Z,7.77
2019-01-29T11:53:07.020Z,8.50
2019-01-29T11:55:36.383Z,9.77
2019-01-29T11:58:06.018Z,9.83
2019-01-29T12:00:47.627Z,9.63
2019-01-29T12:03:17.385Z,10.30
2019-01-29T12:05:46.691Z,12.00
2019-01-29T12:08:16.198Z,11.87
2019-01-29T12:10:45.564Z,11.60
2019-01-29T12:13:14.987Z,12.17
2019-01-29T12:15:44.345Z,12.00
2019-01-29T12:18:13.721Z,12.77
2019-01-29T12:20:43.063Z,12.93
2019-01-29T12:23:12.619Z,13.03
2019-01-29T12:25:41.899Z,13.30
2019-01-29T12:28:11.220Z,13.10
2019-01-29T12:30:40.558Z,13.77
2019-01-29T12:33:10.740Z,13.33
2019-01-29T12:35:40.259Z,14.20
2019-01-29T12:38:09.607Z,15.57
2019-01-29T12:40:38.907Z,14.73
2019-01-29T12:43:08.235Z,16.00
2019-01-29T12:45:37.664Z,15.23
2019-01-29T12:48:06.984Z,15.43
2019-01-29T12:50:36.270Z,15.47
2019-01-29T12:53:17.041Z,14.87
2019-01-29T12:55:46.491Z,14.67
2019-01-29T12:58:15.869Z,14.50
2019-01-29T13:00:47.541Z,14.00
2019-01-29T13:03:16.855Z,14.23
2019-01-29T13:05:46.211Z,13.47
2019-01-29T13:08:15.559Z,13.67
2019-01-29T13:10:44.904Z,13.07
2019-01-29T13:13:14.256Z,13.50
2019-01-29T13:15:43.640Z,14.23
2019-01-29T13:18:12.965Z,13.60
2019-01-29T13:20:42.252Z,13.67
2019-01-29T13:23:11.655Z,13.67
2019-01-29T13:25:40.986Z,13.97
2019-01-29T13:28:10.300Z,15.30
2019-01-29T13:30:39.729Z,13.87
2019-01-29T13:33:11.705Z,14.50
2019-01-29T13:35:41.147Z,13.90
2019-01-29T13:38:10.513Z,13.97
2019-01-29T13:40:39.792Z,13.50
2019-01-29T13:43:09.113Z,13.90
2019-01-29T13:45:38.515Z,13.63
2019-01-29T13:48:07.886Z,15.27
2019-01-29T13:50:40.329Z,14.40
2019-01-29T13:53:09.721Z,14.10
2019-01-29T13:55:39.033Z,12.87
2019-01-29T13:58:08.773Z,13.30
2019-01-29T14:00:40.691Z,12.90
2019-01-29T14:03:11.125Z,12.70
2019-01-29T14:05:40.425Z,12.07
2019-01-29T14:08:09.809Z,12.57
2019-01-29T14:10:39.082Z,12.07
2019-01-29T14:13:08.375Z,13.03
2019-01-29T14:15:49.551Z,12.27
2019-01-29T14:18:20.520Z,13.40
2019-01-29T14:20:49.815Z,12.63
2019-01-29T14:23:19.178Z,13.17
2019-01-29T14:25:48.484Z,11.37
2019-01-29T14:28:17.780Z,12.00
2019-01-29T14:30:47.066Z,11.30
2019-01-29T14:33:16.356Z,11.40
2019-01-29T14:35:45.699Z,10.80
2019-01-29T14:39:17.878Z,10.67
2019-01-29T14:41:47.176Z,10.63
2019-01-29T14:44:28.233Z,9.50
2019-01-29T14:46:57.524Z,10.10
2019-01-29T14:49:26.826Z,9.93
2019-01-29T14:51:56.069Z,9.07
2019-01-29T14:54:25.372Z,9.47
2019-01-29T14:56:56.959Z,9.77
2019-01-29T14:59:24.004Z,9.83
2019-01-29T15:01:53.254Z,9.17
2019-01-29T15:04:22.556Z,9.40
2019-01-29T15:06:51.889Z,9.13
2019-01-29T15:09:21.203Z,9.20
2019-01-29T15:11:50.515Z,10.00
2019-01-29T15:14:19.803Z,10.40
2019-01-29T15:17:20.553Z,10.67
2019-01-29T15:19:49.848Z,10.23
2019-01-29T15:22:19.226Z,10.37
2019-01-29T15:24:48.558Z,11.10
2019-01-29T15:27:17.920Z,10.50
2019-01-29T15:29:47.231Z,10.13
2019-01-29T15:32:16.512Z,10.00
2019-01-29T15:34:45.843Z,9.47
2019-01-29T15:37:15.267Z,9.83
2019-01-29T15:39:44.551Z,10.00
2019-01-29T15:42:13.879Z,9.37
2019-01-29T15:44:43.167Z,9.43
2019-01-29T15:47:12.515Z,10.03
2019-01-29T15:49:41.820Z,9.93
2019-01-29T15:52:11.118Z,9.63
2019-01-29T15:54:40.392Z,10.60
2019-01-29T15:57:14.334Z,11.73
2019-01-29T15:59:43.129Z,11.00
2019-01-29T16:02:08.356Z,11.17
2019-01-29T16:04:37.739Z,11.23
2019-01-29T16:07:07.089Z,10.90
2019-01-29T16:09:36.446Z,10.97
2019-01-29T16:12:06.113Z,11.03
2019-01-29T16:14:35.494Z,10.30
2019-01-29T16:17:04.905Z,10.03
2019-01-29T16:19:34.227Z,10.47
2019-01-29T16:22:03.560Z,11.67
2019-01-29T16:24:32.939Z,11.03
2019-01-29T16:27:06.937Z,10.60
2019-01-29T16:29:31.697Z,11.73
2019-01-29T16:32:01.059Z,10.73
2019-01-29T16:34:30.525Z,11.67
2019-01-29T16:36:59.971Z,11.33
2019-01-29T16:39:29.287Z,10.80
2019-01-29T16:41:58.644Z,10.67
2019-01-29T16:44:28.710Z,10.53
2019-01-29T16:46:58.176Z,10.33
2019-01-29T16:49:27.466Z,10.60
2019-01-29T16:51:56.751Z,10.67
2019-01-29T16:54:26.124Z,9.97
2019-01-29T16:56:55.404Z,10.03
2019-01-29T16:59:24.734Z,10.63
2019-01-29T17:01:54.055Z,10.47
2019-01-29T17:04:23.361Z,10.67
2019-01-29T17:06:52.650Z,10.73
2019-01-29T17:09:22.044Z,11.00
2019-01-29T17:11:51.387Z,10.77
2019-01-29T17:14:20.739Z,10.63
2019-01-29T17:16:50.080Z,10.37
2019-01-29T17:19:19.387Z,10.50
2019-01-29T17:22:12.060Z,9.03
2019-01-29T17:25:01.837Z,10.03
2019-01-29T17:31:25.248Z,9.07
2019-01-29T17:34:39.083Z,9.53
2019-01-29T17:43:20.452Z,8.30
2019-01-29T17:45:52.144Z,8.13
2019-01-29T17:48:21.509Z,8.07
2019-01-29T17:50:50.820Z,7.40
2019-01-29T17:53:20.091Z,7.40
2019-01-29T17:55:49.548Z,7.37
2019-01-29T17:58:18.876Z,6.10
2019-01-29T18:00:54.585Z,6.03
2019-01-29T18:03:24.081Z,5.90
2019-01-29T18:05:53.528Z,5.70
2019-01-29T18:08:22.947Z,6.40
2019-01-29T18:10:52.248Z,6.63
2019-01-29T18:13:21.705Z,5.97
2019-01-29T18:15:51.580Z,5.87
2019-01-29T18:18:20.925Z,7.10
2019-01-29T18:20:50.392Z,6.80
2019-01-29T18:23:19.923Z,6.33
2019-01-29T18:25:49.357Z,6.63
2019-01-29T18:28:18.879Z,8.30
2019-01-29T18:30:48.269Z,7.40
2019-01-29T18:33:17.721Z,7.33
2019-01-29T18:35:47.002Z,7.17
2019-01-29T18:38:16.372Z,6.73
2019-01-29T18:40:51.796Z,7.30
2019-01-29T18:43:21.201Z,7.53
2019-01-29T18:45:50.572Z,7.87
2019-01-29T18:48:19.979Z,6.77
2019-01-29T18:50:49.399Z,7.33
2019-01-29T18:53:18.754Z,9.93
2019-01-29T18:55:48.088Z,8.30
2019-01-29T18:58:17.510Z,6.43
2019-01-29T19:00:54.288Z,7.43
2019-01-29T19:03:16.629Z,6.50
2019-01-29T19:05:46.037Z,9.63
2019-01-29T19:08:15.413Z,8.47
2019-01-29T19:10:44.812Z,7.07
2019-01-29T19:13:14.131Z,6.47
2019-01-29T19:15:43.490Z,6.30
2019-01-29T19:18:12.938Z,6.97
2019-01-29T19:20:42.439Z,6.20
2019-01-29T19:23:12.002Z,6.57
2019-01-29T19:25:41.357Z,6.67
2019-01-29T19:28:10.791Z,6.37
2019-01-29T19:30:40.138Z,6.83
2019-01-29T19:33:09.468Z,6.73
2019-01-29T19:35:38.858Z,7.27
2019-01-29T19:38:08.230Z,8.13
2019-01-29T19:40:40.361Z,7.90
2019-01-29T19:43:07.210Z,7.27
2019-01-29T19:45:36.538Z,7.47
2019-01-29T19:48:07.420Z,7.17
2019-01-29T19:50:36.930Z,6.93
2019-01-29T19:53:06.483Z,7.20
2019-01-29T19:55:36.076Z,7.70
2019-01-29T19:58:09.101Z,8.07
2019-01-29T20:00:37.314Z,7.10
2019-01-29T20:03:06.697Z,7.33
2019-01-29T20:05:36.057Z,7.13
2019-01-29T20:08:05.375Z,7.17
2019-01-29T20:10:34.908Z,6.77
2019-01-29T20:13:04.725Z,7.47
2019-01-29T20:15:34.048Z,7.77
2019-01-29T20:18:03.486Z,7.00
2019-01-29T20:20:35.536Z,6.90
2019-01-29T20:23:08.026Z,7.43
2019-01-29T20:25:34.362Z,6.83
2019-01-29T20:28:03.686Z,6.97
2019-01-29T20:30:34.665Z,6.83
2019-01-29T20:33:05.348Z,7.60
2019-01-29T20:35:33.472Z,7.63
2019-01-29T20:38:02.818Z,6.90
2019-01-29T20:40:32.204Z,7.33
2019-01-29T20:43:01.627Z,7.57
2019-01-29T20:45:30.931Z,7.90
2019-01-29T20:48:00.253Z,23.03
2019-01-29T20:50:32.007Z,11.03
2019-01-29T20:53:01.399Z,7.57
2019-01-29T20:55:30.847Z,7.93
2019-01-29T20:58:00.251Z,7.63
2019-01-29T21:00:31.934Z,7.20
2019-01-29T21:03:01.310Z,7.87
2019-01-29T21:05:30.624Z,7.47
2019-01-29T21:08:00.604Z,7.03
2019-01-29T21:10:29.347Z,7.67
2019-01-29T21:12:59.245Z,7.37
2019-01-29T21:15:38.115Z,6.53
2019-01-29T21:18:04.546Z,7.13
2019-01-29T21:20:39.764Z,8.50
2019-01-29T21:23:09.679Z,7.50
2019-01-29T21:25:42.957Z,7.70
2019-01-29T21:28:13.291Z,8.60
2019-01-29T21:30:49.444Z,8.70
2019-01-29T21:33:16.490Z,8.37
2019-01-29T21:35:45.849Z,13.77
2019-01-29T21:38:15.136Z,9.10
2019-01-29T21:40:44.970Z,8.70
2019-01-29T21:43:17.121Z,8.33
2019-01-29T21:45:45.763Z,8.37
2019-01-29T21:48:18.050Z,7.40
2019-01-29T21:50:47.634Z,7.53
2019-01-29T21:53:16.903Z,7.33
2019-01-29T21:55:46.188Z,8.03
2019-01-29T21:58:15.631Z,7.43
2019-01-29T22:00:45.810Z,7.20
2019-01-29T22:03:15.922Z,8.10
2019-01-29T22:05:45.375Z,6.83
2019-01-29T22:08:14.780Z,8.43
2019-01-29T22:10:44.148Z,9.13
2019-01-29T22:13:13.857Z,6.83
2019-01-29T22:15:43.424Z,7.83
2019-01-29T22:18:14.045Z,8.00
2019-01-29T22:20:43.434Z,7.50
2019-01-29T22:23:13.012Z,7.47
2019-01-29T22:25:42.397Z,7.57
2019-01-29T22:28:11.874Z,8.07
2019-01-29T22:30:42.469Z,7.83
2019-01-29T22:33:11.826Z,7.40
2019-01-29T22:35:41.358Z,8.60
2019-01-29T22:38:10.698Z,8.00
2019-01-29T22:40:40.071Z,7.13
2019-01-29T22:43:09.502Z,7.47
2019-01-29T22:45:38.870Z,7.17
2019-01-29T22:48:09.211Z,7.57
2019-01-29T22:50:40.318Z,7.60
2019-01-29T22:53:09.625Z,7.57
2019-01-29T22:55:39.079Z,7.37
2019-01-29T22:58:08.546Z,7.73
2019-01-29T23:01:11.722Z,7.23
2019-01-29T23:03:43.924Z,6.90
2019-01-29T23:06:46.989Z,6.80
2019-01-29T23:09:16.341Z,6.43
2019-01-29T23:11:45.740Z,6.67
2019-01-29T23:14:15.152Z,7.33
2019-01-29T23:16:44.512Z,6.60
2019-01-29T23:19:13.798Z,5.63
2019-01-29T23:21:43.113Z,6.10
2019-01-29T23:24:12.402Z,6.03
2019-01-29T23:26:41.709Z,6.67
2019-01-29T23:29:10.974Z,6.37
2019-01-29T23:31:40.322Z,6.27
2019-01-29T23:34:09.611Z,5.40
2019-01-29T23:36:38.908Z,5.53
2019-01-29T23:39:09.074Z,6.27
2019-01-29T23:41:38.345Z,5.20
2019-01-29T23:44:07.674Z,7.23
2019-01-29T23:46:37.044Z,5.93
2019-01-29T23:49:06.352Z,5.20
2019-01-29T23:51:35.680Z,5.33
2019-01-29T23:54:05.333Z,4.90
2019-01-29T23:56:34.687Z,4.73
2019-01-29T23:59:03.986Z,5.00
